Destinations Leeds Bradford Airport

Leeds Bradford Airport (EGNM / LBA)

Flights to Leeds Bradford Airport

Flight number From ETE Dispatch
SPY-200 EHGG Groningen Airport Eelde 01:35

Flights from Leeds Bradford Airport

Flight number To ETE Dispatch
SPY-201 EHGG Groningen Airport Eelde 01:25
About

Leeds Bradford Airport facts

Leeds Bradford Airport is located in Leeds at an elevation of 207.6 meters or 681 feet.

Currently, Speedy Airlines serves 2 flights to and from Leeds Bradford Airport.

Detailed airport info

Route map

Weather

Current weather

METAR

METAR

Metar data retrieved Sunday, 21 July 2024 at 20:25 UTC

EGNM 211950Z 25006KT 9999 FEW030 15/09 Q1012
Wind Temperature
6 kt 15c